Etusivu
METAR-TAF:

METAR-TAF

Lentoasemat :

Saint-Nazaire, Ranska

Leveyspiiri: 47-19N, Pituuspiiri: 002-10W, korkeus merenpinnasta: 3 m

Tämänhetkinen sää

Tämä raportti tehtiin 35 minuuttia sitten, kello 04.30 UTC
Tuuli 8 kn lännestä
Lämpötila 5°C
Kosteus 75%
Ilmanpaine 1006 hPa
Näkyvyys 10 km tai enemmän
ei pilviä alle 1500 m:ssä eikä cumulonimbus-pilviä

METAR: LFRZ 250430Z AUTO 28008KT CAVOK 05/01 Q1006 NOSIG

Aika: 06:05 (05:05 UTC)

Sääennuste

Tämä raportti tehtiin 6 tuntia ja 5 minuuttia sitten, kello 23.00 UTC
Ennuste voimassa 25. päivästä klo 00 UTC - 25. päivään klo 24 UTC
Tuuli 11 kn lännestä/luoteesta
Näkyvyys 10 km tai enemmän
ei pilviä alle 1500 m:ssä eikä cumulonimbus-pilviä
Tulossa
25. päivästä klo 09 UTC - 25. päivään klo 11 UTC
Tuuli 6 kn pohjoisesta

TAF: LFRZ 242300Z 2500/2524 29011KT CAVOK BECMG 2509/2511 01006KT

Säähavainnot ja -ennusteet yli 4000 lentoasemalta (METAR- ja TAF-raportit).

Käytössä olevat sääasemat on merkitty karttaan keltaisilla ja punaisilla pisteillä.

Aseta hiiri pisteen päälle nähdäksesi sääaseman nimen.

Klikkaa sitten nähdäksesi säähavainnot ja -ennusteet.

Kartan vaihtaminen: klikkaa mustalla rastilla varustettuja vihreitä pisteitä, niin voit zoomata sisään; viivalla varustettua vihreää pistettä, niin voit zoomata ulos tai vihreitä nuolia, niin pääset viereisille kartoille.


METAR-TAF: